Time;durP1;ratioP1;P1;durP2;ratioP2;P2;SDS_P1;SDS_P2;PMS_P1;PMS_P2;Temp;Humidity;BMP_temperature;BMP_pressure;BME280_temperature;BME280_humidity;BME280_pressure;Samples;Min_cycle;Max_cycle;Signal;HPM_P1;HPM_P2
2021/06/17 00:00:22;;;;;;;10.52;6.20;;;;;;;18.82;72.40;99780.94;4995455;28;20093;-64
2021/06/17 00:02:56;;;;;;;7.18;6.05;;;;;;;18.91;71.92;99774.63;4996609;28;20054;-64
2021/06/17 00:05:28;;;;;;;8.75;6.57;;;;;;;18.92;71.57;99771.13;4996845;28;20097;-64
2021/06/17 00:08:02;;;;;;;9.45;6.72;;;;;;;18.96;71.28;99783.06;4996541;28;20046;-63
2021/06/17 00:10:38;;;;;;;8.30;6.45;;;;;;;18.95;71.06;99781.38;4996207;28;20054;-63
2021/06/17 00:13:13;;;;;;;11.30;6.30;;;;;;;18.98;71.17;99789.06;4996426;28;20058;-63
2021/06/17 00:15:46;;;;;;;10.02;6.32;;;;;;;18.89;71.53;99789.34;4996359;28;20058;-63
2021/06/17 00:18:18;;;;;;;8.65;6.35;;;;;;;18.84;71.66;99788.63;4996092;28;20058;-63
2021/06/17 00:20:51;;;;;;;8.85;5.88;;;;;;;18.90;71.62;99791.03;4996510;28;20058;-63
2021/06/17 00:23:20;;;;;;;9.43;6.30;;;;;;;18.95;71.40;99791.75;4996266;28;20058;-64
2021/06/17 00:25:50;;;;;;;8.85;6.50;;;;;;;18.93;71.41;99788.34;4995221;28;20082;-64
2021/06/17 00:28:19;;;;;;;;;;;;;;;18.97;71.37;99792.53;4996766;28;20095;-64
2021/06/17 00:30:53;;;;;;;10.60;6.30;;;;;;;18.98;71.15;99796.81;4995766;28;19998;-64
2021/06/17 00:33:22;;;;;;;11.40;6.25;;;;;;;18.94;71.06;99790.03;4995842;28;20054;-64
2021/06/17 00:35:51;;;;;;;7.43;5.55;;;;;;;18.91;71.05;99800.50;4995936;28;20489;-64
2021/06/17 00:38:20;;;;;;;7.78;5.32;;;;;;;18.89;71.04;99797.94;4995926;28;20424;-65
2021/06/17 00:40:54;;;;;;;8.55;6.07;;;;;;;18.88;70.89;99804.03;4995916;28;20588;-64
2021/06/17 00:43:23;;;;;;;11.18;5.65;;;;;;;18.87;70.80;99798.88;4995891;28;20058;-65
2021/06/17 00:45:58;;;;;;;9.02;5.35;;;;;;;18.81;70.94;99799.97;4995757;28;20073;-64
2021/06/17 00:48:27;;;;;;;9.13;5.95;;;;;;;18.83;71.10;99799.91;4995530;28;20054;-63
2021/06/17 00:51:02;;;;;;;8.60;5.90;;;;;;;18.84;71.08;99798.97;4995677;28;20058;-63
2021/06/17 00:53:34;;;;;;;11.18;5.63;;;;;;;18.85;71.15;99800.69;4995479;28;20058;-63
2021/06/17 00:56:06;;;;;;;10.10;5.80;;;;;;;18.83;71.11;99797.31;4995625;28;20042;-63
2021/06/17 00:58:40;;;;;;;8.70;5.88;;;;;;;18.71;71.22;99789.03;4995523;28;20054;-65
2021/06/17 01:01:14;;;;;;;7.38;5.25;;;;;;;18.80;71.33;99802.56;4995541;28;20058;-64
2021/06/17 01:03:46;;;;;;;9.02;5.75;;;;;;;18.80;71.28;99805.16;4995510;28;20060;-65
2021/06/17 01:06:19;;;;;;;7.85;5.72;;;;;;;18.77;71.19;99797.50;4995481;28;20054;-65
2021/06/17 01:09:00;;;;;;;9.77;6.03;;;;;;;18.70;71.53;99797.69;4994952;28;20077;-63
2021/06/17 01:11:41;;;;;;;7.45;5.45;;;;;;;18.71;71.57;99794.19;4994992;28;20507;-64
2021/06/17 01:14:19;;;;;;;7.63;5.95;;;;;;;18.59;71.89;99789.44;4995312;28;20054;-64
2021/06/17 01:16:55;;;;;;;9.70;5.65;;;;;;;18.54;72.01;99781.00;4995151;28;20061;-64
2021/06/17 01:19:45;;;;;;;10.43;5.75;;;;;;;18.51;72.31;99796.59;4995196;28;20484;-63
2021/06/17 01:22:20;;;;;;;11.50;5.47;;;;;;;18.50;72.62;99800.06;4995171;28;20106;-63
2021/06/17 01:25:20;;;;;;;8.32;5.25;;;;;;;18.58;72.42;99798.09;4995413;28;20062;-63
2021/06/17 01:28:07;;;;;;;7.45;5.30;;;;;;;18.64;72.26;99802.22;4994963;28;20062;-65
2021/06/17 01:30:48;;;;;;;7.18;5.10;;;;;;;18.66;72.15;99801.28;4994799;28;20050;-65
2021/06/17 01:33:19;;;;;;;6.85;5.25;;;;;;;18.66;72.23;99793.53;4994657;28;20046;-66
2021/06/17 01:35:52;;;;;;;9.40;5.40;;;;;;;18.61;72.09;99795.41;4994949;28;20078;-66
2021/06/17 01:38:25;;;;;;;8.10;5.78;;;;;;;18.58;72.43;99797.22;4994590;28;20416;-65
2021/06/17 01:40:56;;;;;;;7.13;5.53;;;;;;;18.57;72.53;99792.97;4995315;28;20105;-65
2021/06/17 01:43:28;;;;;;;9.23;5.95;;;;;;;18.43;72.78;99793.34;4995111;28;20050;-65
2021/06/17 01:46:03;;;;;;;9.95;6.05;;;;;;;18.38;72.83;99795.22;4995070;28;20504;-65
2021/06/17 01:48:34;;;;;;;9.20;5.75;;;;;;;18.27;73.18;99797.31;4994656;28;20058;-65
2021/06/17 01:51:07;;;;;;;11.70;5.82;;;;;;;18.11;73.39;99787.47;4994418;28;20050;-64
2021/06/17 01:53:38;;;;;;;8.15;5.35;;;;;;;17.96;73.88;99801.69;4994673;28;20050;-63
2021/06/17 01:56:11;;;;;;;9.23;6.15;;;;;;;17.81;74.56;99791.78;4994594;28;20120;-63
2021/06/17 01:58:45;;;;;;;6.68;5.40;;;;;;;17.92;74.68;99800.06;4994556;28;20552;-65
2021/06/17 02:01:20;;;;;;;7.63;5.13;;;;;;;17.87;74.64;99799.34;4994572;28;20568;-64
2021/06/17 02:03:53;;;;;;;6.80;5.25;;;;;;;17.82;74.39;99794.31;4994524;28;20050;-64
2021/06/17 02:06:27;;;;;;;7.60;5.32;;;;;;;17.69;74.83;99792.97;4994513;28;20062;-64
2021/06/17 02:09:01;;;;;;;9.88;5.72;;;;;;;17.70;74.85;99793.81;4994212;28;20046;-64
2021/06/17 02:11:34;;;;;;;7.65;5.45;;;;;;;17.71;75.15;99800.66;4994168;28;20042;-64
2021/06/17 02:14:10;;;;;;;9.55;5.40;;;;;;;17.76;74.90;99788.47;4994727;28;20556;-65
2021/06/17 02:16:43;;;;;;;7.05;5.60;;;;;;;17.91;74.76;99788.03;4994318;28;20061;-65
2021/06/17 02:19:23;;;;;;;6.97;5.47;;;;;;;17.98;74.18;99789.56;4994642;28;20054;-65
2021/06/17 02:21:58;;;;;;;8.38;5.43;;;;;;;18.00;74.09;99782.59;4994728;28;20108;-64
2021/06/17 02:24:34;;;;;;;6.38;5.15;;;;;;;18.01;73.76;99786.91;4998435;28;20086;-65
2021/06/17 02:27:09;;;;;;;6.80;5.10;;;;;;;18.02;73.59;99785.97;4997698;28;20081;-65
2021/06/17 02:29:47;;;;;;;6.32;4.72;;;;;;;17.99;73.53;99791.25;4998754;28;20532;-64
2021/06/17 02:32:24;;;;;;;8.93;5.43;;;;;;;17.95;73.23;99794.81;4998317;28;20480;-63
2021/06/17 02:34:59;;;;;;;9.95;5.55;;;;;;;17.94;73.13;99795.72;4998294;28;20408;-63
2021/06/17 02:37:33;;;;;;;7.95;5.05;;;;;;;17.90;73.10;99796.69;4998177;28;20065;-63
2021/06/17 02:40:07;;;;;;;6.95;4.60;;;;;;;17.92;73.11;99800.91;4998139;28;20069;-65
2021/06/17 02:42:55;;;;;;;7.68;5.03;;;;;;;17.91;73.09;99798.38;4998185;28;20436;-65
2021/06/17 02:45:29;;;;;;;9.73;5.63;;;;;;;17.86;73.08;99795.06;4998046;28;20058;-64
2021/06/17 02:48:02;;;;;;;7.15;4.88;;;;;;;17.84;73.01;99797.72;4998015;28;20061;-65
2021/06/17 02:50:35;;;;;;;6.38;4.72;;;;;;;17.78;72.97;99797.88;4997625;28;20042;-63
2021/06/17 02:53:08;;;;;;;9.23;5.05;;;;;;;17.82;73.00;99798.63;4997957;28;20073;-63
2021/06/17 02:55:41;;;;;;;9.43;4.90;;;;;;;17.84;72.84;99792.53;4998182;28;20562;-63
2021/06/17 02:58:40;;;;;;;8.23;4.75;;;;;;;17.79;72.77;99789.25;4997848;28;20062;-63
2021/06/17 03:01:15;;;;;;;6.43;4.57;;;;;;;17.77;72.65;99790.16;4966189;28;20050;-63
2021/06/17 03:03:48;;;;;;;7.07;4.75;;;;;;;17.70;73.07;99793.81;4997961;28;20137;-63
2021/06/17 03:06:26;;;;;;;7.22;4.90;;;;;;;17.70;72.90;99798.97;4997695;28;20068;-63
2021/06/17 03:08:58;;;;;;;7.78;4.57;;;;;;;17.65;73.11;99782.78;4997654;28;20141;-63
2021/06/17 03:11:32;;;;;;;9.95;4.72;;;;;;;17.73;73.00;99791.16;4997268;28;20085;-64
2021/06/17 03:14:11;;;;;;;7.65;5.00;;;;;;;17.74;73.06;99779.94;4997571;28;20072;-64
2021/06/17 03:16:48;;;;;;;7.15;4.60;;;;;;;17.76;72.59;99785.88;4997597;28;20384;-64
2021/06/17 03:19:20;;;;;;;7.32;4.45;;;;;;;17.69;72.98;99792.97;4997735;28;20062;-64
2021/06/17 03:21:56;;;;;;;6.80;4.68;;;;;;;17.78;72.72;99797.03;4997549;28;20053;-64
2021/06/17 03:24:32;;;;;;;6.88;5.10;;;;;;;17.86;72.64;99801.09;4997353;28;20078;-64
2021/06/17 03:27:07;;;;;;;7.07;4.78;;;;;;;17.91;72.43;99799.22;4995565;28;20493;-64
2021/06/17 03:29:45;;;;;;;9.50;4.82;;;;;;;17.93;72.33;99801.75;4996111;28;20057;-64
2021/06/17 03:32:21;;;;;;;10.50;5.20;;;;;;;17.91;72.21;99806.97;4995724;28;20046;-63
2021/06/17 03:34:54;;;;;;;9.05;4.63;;;;;;;18.05;72.36;99801.41;4995710;28;20137;-63
2021/06/17 03:37:28;;;;;;;6.88;4.70;;;;;;;18.09;72.18;99798.69;4995714;28;20058;-63
2021/06/17 03:40:03;;;;;;;9.20;4.93;;;;;;;18.08;72.09;99798.72;4996537;28;20058;-64
2021/06/17 03:42:36;;;;;;;6.18;4.60;;;;;;;18.15;71.78;99797.66;4978481;28;20050;-64
2021/06/17 03:45:10;;;;;;;8.38;4.72;;;;;;;18.20;71.64;99795.78;4995830;28;20076;-63
2021/06/17 03:47:49;;;;;;;9.88;5.22;;;;;;;18.15;71.62;99801.97;4996089;28;20056;-64
2021/06/17 03:50:24;;;;;;;8.43;5.07;;;;;;;18.20;71.75;99800.97;4995716;28;20066;-64
2021/06/17 03:52:59;;;;;;;10.00;5.28;;;;;;;18.18;71.62;99802.75;4995668;28;20046;-63
2021/06/17 03:55:33;;;;;;;8.30;4.82;;;;;;;18.22;71.88;99803.50;4995737;28;20132;-64
2021/06/17 03:58:06;;;;;;;10.13;5.22;;;;;;;18.29;71.76;99805.84;4995637;28;20520;-64
2021/06/17 04:00:40;;;;;;;7.80;5.05;;;;;;;18.33;71.83;99804.84;4995610;28;20497;-65
2021/06/17 04:03:12;;;;;;;7.45;5.00;;;;;;;18.42;71.91;99806.34;4995506;28;20061;-64
2021/06/17 04:05:44;;;;;;;7.10;4.85;;;;;;;18.47;71.59;99807.94;4995501;28;20074;-64
2021/06/17 04:08:18;;;;;;;8.05;4.95;;;;;;;18.54;71.66;99806.84;4995757;28;20058;-64
2021/06/17 04:10:51;;;;;;;9.13;4.55;;;;;;;18.64;71.49;99808.22;4995388;28;20042;-64
2021/06/17 04:13:28;;;;;;;10.88;4.95;;;;;;;18.81;71.01;99810.31;4995081;28;20423;-65
2021/06/17 04:16:01;;;;;;;6.28;4.55;;;;;;;18.87;70.81;99806.66;4995662;28;20097;-64
2021/06/17 04:18:36;;;;;;;7.10;4.53;;;;;;;19.03;70.43;99815.59;4995551;28;20059;-64
2021/06/17 04:21:10;;;;;;;9.93;5.13;;;;;;;19.25;70.21;99803.63;4995307;28;20054;-65
2021/06/17 04:23:42;;;;;;;10.93;4.80;;;;;;;19.41;69.52;99812.63;4995106;28;20054;-63
2021/06/17 04:26:18;;;;;;;8.45;5.13;;;;;;;19.57;69.21;99808.59;4977230;28;354034;-63
2021/06/17 04:28:48;;;;;;;9.25;4.22;;;;;;;19.74;68.88;99811.44;4985372;28;20062;-63
2021/06/17 04:31:21;;;;;;;6.63;4.28;;;;;;;19.95;68.39;99828.78;4996492;28;20137;-63
2021/06/17 04:34:07;;;;;;;6.88;4.80;;;;;;;20.11;68.05;99817.88;4996335;28;20112;-64
2021/06/17 04:36:40;;;;;;;6.45;4.60;;;;;;;20.26;67.83;99825.09;4898588;29;20052;-64
2021/06/17 04:39:12;;;;;;;11.85;5.00;;;;;;;20.39;67.57;99819.38;4898608;29;20076;-63
2021/06/17 04:41:46;;;;;;;8.57;5.00;;;;;;;20.61;67.41;99822.81;4898320;29;20507;-63
2021/06/17 04:44:16;;;;;;;9.75;4.80;;;;;;;20.81;66.88;99816.84;4898105;29;20059;-64
2021/06/17 04:46:48;;;;;;;;;;;;;;;21.00;66.12;99820.38;4897918;29;20068;-64
2021/06/17 04:49:23;;;;;;;11.00;6.63;;;;;;;21.19;65.61;99825.69;4897877;29;19924;-64
2021/06/17 04:51:56;;;;;;;13.98;9.43;;;;;;;21.35;65.00;99817.19;4898042;29;20063;-64
2021/06/17 04:54:26;;;;;;;8.15;5.03;;;;;;;21.49;64.40;99813.16;4897864;29;20059;-64
2021/06/17 04:56:57;;;;;;;;;;;;;;;21.68;63.93;99819.25;4898196;29;20045;-63
2021/06/17 04:59:30;;;;;;;9.52;5.07;;;;;;;21.81;63.25;99816.03;4897819;29;19923;-63
2021/06/17 05:02:02;;;;;;;7.85;4.40;;;;;;;21.96;62.81;99817.16;4898002;29;20051;-64
2021/06/17 05:04:36;;;;;;;10.30;4.82;;;;;;;22.06;62.52;99805.44;4897922;29;20052;-63
2021/06/17 05:12:54;;;;;;;19.92;9.40;;;;;;;22.35;61.50;99807.53;4884793;28;20057;-65
2021/06/17 05:15:27;;;;;;;16.25;7.53;;;;;;;22.40;61.37;99805.56;4973564;28;20157;-62
2021/06/17 05:17:59;;;;;;;42.03;17.02;;;;;;;22.51;61.03;99813.69;4974006;28;20062;-64
2021/06/17 05:20:33;;;;;;;35.65;14.27;;;;;;;22.60;60.87;99810.66;4973913;28;20054;-63
2021/06/17 05:23:06;;;;;;;506.30;220.65;;;;;;;22.73;60.66;99810.94;4973734;28;20150;-64
2021/06/17 05:25:35;;;;;;;1764.43;734.72;;;;;;;22.81;60.46;99810.59;4973668;28;20078;-64
2021/06/17 05:28:10;;;;;;;124.75;53.58;;;;;;;22.90;59.91;99813.56;4973579;28;20047;-64
2021/06/17 05:30:43;;;;;;;1197.57;535.08;;;;;;;23.03;59.40;99813.81;4973855;28;20088;-64
2021/06/17 05:33:16;;;;;;;950.75;479.27;;;;;;;22.91;59.11;99764.97;4973259;28;20050;-63
2021/06/17 05:35:50;;;;;;;1382.55;647.97;;;;;;;23.30;58.77;99805.47;4973314;28;20078;-64
2021/06/17 05:38:24;;;;;;;629.15;266.85;;;;;;;23.50;58.05;99812.31;4973408;28;20438;-62
2021/06/17 05:40:57;;;;;;;32.65;15.63;;;;;;;23.57;57.14;99811.06;4966451;28;20053;-62
2021/06/17 05:43:30;;;;;;;336.35;117.05;;;;;;;23.64;56.92;99820.25;4994794;28;20046;-63
2021/06/17 05:46:03;;;;;;;568.42;234.88;;;;;;;23.81;56.82;99812.41;4994611;28;20086;-65
2021/06/17 05:48:38;;;;;;;447.17;167.32;;;;;;;23.92;56.89;99815.25;4994667;28;20138;-63
2021/06/17 05:51:12;;;;;;;406.95;139.88;;;;;;;24.08;56.26;99815.34;4994456;28;20076;-65
2021/06/17 05:53:45;;;;;;;134.68;47.00;;;;;;;24.16;55.60;99818.38;4994556;28;20043;-65
2021/06/17 05:56:20;;;;;;;205.38;71.47;;;;;;;24.23;55.27;99816.28;4994517;28;20046;-63
2021/06/17 05:58:50;;;;;;;309.15;118.40;;;;;;;24.27;54.92;99817.78;4994265;28;20062;-63
2021/06/17 06:01:22;;;;;;;184.20;71.75;;;;;;;24.35;54.77;99813.00;4994490;28;20097;-65
2021/06/17 06:03:52;;;;;;;81.65;36.33;;;;;;;24.45;54.81;99822.84;4994666;28;20046;-64
2021/06/17 06:06:23;;;;;;;51.22;21.17;;;;;;;24.61;54.65;99823.69;4994628;28;20133;-64
2021/06/17 06:08:54;;;;;;;73.20;31.38;;;;;;;24.69;53.95;99818.00;4994039;28;20436;-64
2021/06/17 06:11:28;;;;;;;174.57;60.60;;;;;;;24.79;53.50;99819.22;4994351;28;20050;-63
2021/06/17 06:13:58;;;;;;;60.53;23.83;;;;;;;24.86;52.99;99810.09;4994304;28;20054;-63
2021/06/17 06:16:31;;;;;;;12.90;6.68;;;;;;;24.99;52.54;99821.53;4994330;28;20054;-61
2021/06/17 06:19:00;;;;;;;497.88;235.20;;;;;;;25.08;52.75;99818.41;4994859;28;20072;-64
2021/06/17 06:21:34;;;;;;;;;;;;;;;25.24;52.70;99827.00;4994660;28;20054;-62
2021/06/17 06:24:05;;;;;;;210.15;85.72;;;;;;;25.38;52.14;99818.38;4994565;28;19922;-64
2021/06/17 06:26:38;;;;;;;144.95;64.18;;;;;;;25.48;51.69;99826.56;4993337;28;20401;-64
2021/06/17 06:29:08;;;;;;;52.72;21.00;;;;;;;25.51;51.43;99823.72;4994525;28;20062;-62
2021/06/17 06:31:42;;;;;;;130.10;51.15;;;;;;;25.56;51.60;99826.91;4994107;28;20043;-65
2021/06/17 06:34:12;;;;;;;35.85;15.50;;;;;;;25.70;51.80;99829.53;4994203;28;20058;-63
2021/06/17 06:36:42;;;;;;;;;;;;;;;25.82;51.40;99829.66;4994771;28;20488;-64
2021/06/17 06:39:15;;;;;;;173.38;65.90;;;;;;;25.90;50.78;99832.66;4994000;28;20376;-63
2021/06/17 06:41:51;;;;;;;73.53;32.03;;;;;;;26.05;50.79;99838.72;4993922;28;20069;-63
2021/06/17 06:44:24;;;;;;;213.35;91.05;;;;;;;26.17;50.50;99830.16;4994149;28;20534;-63
2021/06/17 06:47:00;;;;;;;39.50;21.02;;;;;;;26.27;50.73;99831.25;4993930;28;20058;-61
2021/06/17 06:49:29;;;;;;;12.68;6.38;;;;;;;26.29;50.05;99828.53;4994078;28;20058;-63
2021/06/17 06:52:07;;;;;;;9.43;4.80;;;;;;;26.35;49.98;99828.97;4993770;28;20050;-63
2021/06/17 06:54:37;;;;;;;6.00;3.67;;;;;;;26.52;50.16;99831.38;4994265;28;20053;-65
2021/06/17 06:57:09;;;;;;;5.63;3.28;;;;;;;26.63;49.54;99828.09;4993849;28;20117;-64
2021/06/17 06:59:42;;;;;;;10.32;4.03;;;;;;;26.48;48.70;99819.44;4994007;28;20078;-62
2021/06/17 07:02:15;;;;;;;6.40;4.32;;;;;;;26.70;48.90;99841.63;4993960;28;20058;-64
2021/06/17 07:04:48;;;;;;;6.82;4.20;;;;;;;26.77;50.01;99846.41;4993562;28;20073;-63
2021/06/17 07:07:19;;;;;;;6.63;3.63;;;;;;;27.03;49.34;99839.47;4993897;28;20096;-64
2021/06/17 07:09:52;;;;;;;8.52;4.00;;;;;;;27.13;48.12;99838.75;4996855;28;20065;-63
2021/06/17 07:12:25;;;;;;;6.40;3.90;;;;;;;27.18;47.73;99844.53;4997455;28;20046;-64
2021/06/17 07:14:55;;;;;;;5.80;4.22;;;;;;;27.33;48.19;99837.41;4997233;28;20074;-63
2021/06/17 07:17:27;;;;;;;5.80;3.97;;;;;;;27.40;47.80;99838.75;4997312;28;20058;-65
2021/06/17 07:20:00;;;;;;;6.15;4.20;;;;;;;27.36;47.21;99847.69;4997543;28;20078;-64
2021/06/17 07:22:31;;;;;;;6.93;3.55;;;;;;;27.46;47.23;99846.19;4997526;28;20100;-64
2021/06/17 07:25:01;;;;;;;6.35;3.70;;;;;;;27.55;47.41;99852.56;4996902;28;20046;-64
2021/06/17 07:27:31;;;;;;;5.93;4.10;;;;;;;27.68;46.71;99856.91;4997140;28;20046;-64
2021/06/17 07:30:01;;;;;;;6.97;3.55;;;;;;;27.79;46.65;99854.38;4996758;28;20428;-63
2021/06/17 07:32:30;;;;;;;;;;;;;;;27.69;47.19;99857.75;4997661;28;20062;-63
2021/06/17 07:34:59;;;;;;;;;;;;;;;27.74;47.13;99861.72;4997219;28;19928;-63
2021/06/17 07:37:30;;;;;;;6.60;4.10;;;;;;;27.81;46.86;99852.47;4997047;28;20030;-64
2021/06/17 07:40:02;;;;;;;6.32;4.05;;;;;;;28.11;47.00;99864.47;4996916;28;20047;-64
2021/06/17 07:42:32;;;;;;;6.38;3.97;;;;;;;28.16;47.13;99862.34;4996995;28;20061;-65
2021/06/17 07:45:02;;;;;;;8.43;4.28;;;;;;;28.09;47.16;99861.97;4996656;28;20453;-64
2021/06/17 07:47:34;;;;;;;5.15;3.42;;;;;;;28.21;46.74;99855.84;4996852;28;20054;-64
2021/06/17 07:50:05;;;;;;;6.07;3.97;;;;;;;28.45;47.00;99863.78;4996910;28;20061;-65
2021/06/17 07:52:37;;;;;;;5.97;3.92;;;;;;;28.64;46.50;99864.16;4996659;28;20069;-65
2021/06/17 07:55:08;;;;;;;8.05;3.70;;;;;;;28.77;46.53;99857.06;4996486;28;20125;-64
2021/06/17 07:57:38;;;;;;;7.68;3.97;;;;;;;28.81;46.11;99850.66;4996558;28;20048;-63
2021/06/17 08:00:14;;;;;;;6.28;3.90;;;;;;;28.88;45.32;99851.88;4996368;28;20128;-65
2021/06/17 08:02:47;;;;;;;6.07;4.00;;;;;;;28.92;44.95;99848.06;4996703;28;20054;-65
2021/06/17 08:05:19;;;;;;;6.25;3.75;;;;;;;28.95;45.56;99858.34;4996575;28;20073;-65
2021/06/17 08:07:50;;;;;;;6.30;4.10;;;;;;;28.96;46.16;99849.50;4996653;28;20488;-66
2021/06/17 08:10:24;;;;;;;6.20;4.03;;;;;;;29.12;45.74;99857.94;4979214;28;20057;-65
2021/06/17 08:12:54;;;;;;;6.00;3.83;;;;;;;29.32;46.00;99860.91;4996169;28;20070;-65
2021/06/17 08:15:24;;;;;;;6.80;4.20;;;;;;;29.37;46.49;99864.03;4996389;28;20511;-64
2021/06/17 08:17:57;;;;;;;6.10;3.90;;;;;;;29.27;46.75;99868.31;4996246;28;20133;-65
2021/06/17 08:20:27;;;;;;;6.63;4.18;;;;;;;29.26;46.78;99851.69;4995294;28;20484;-68
2021/06/17 08:22:58;;;;;;;6.05;4.10;;;;;;;29.16;46.50;99867.28;4996160;28;20061;-65
2021/06/17 08:25:29;;;;;;;9.55;4.80;;;;;;;28.81;46.25;99871.66;4996122;28;20404;-64
2021/06/17 08:28:01;;;;;;;;;;;;;;;28.75;46.70;99871.25;4995964;28;20058;-65
2021/06/17 08:30:36;;;;;;;5.75;3.88;;;;;;;28.97;46.79;99866.13;4995832;28;19922;-65
2021/06/17 08:33:08;;;;;;;6.03;3.90;;;;;;;28.84;46.76;99870.63;4996274;28;20046;-65
2021/06/17 08:35:37;;;;;;;7.90;3.88;;;;;;;28.90;46.06;99863.09;4996317;28;20058;-65
2021/06/17 08:38:09;;;;;;;5.32;3.72;;;;;;;29.15;45.90;99864.78;4995411;28;20507;-66
2021/06/17 08:40:38;;;;;;;6.55;3.50;;;;;;;29.30;45.09;99871.53;4996236;28;20128;-65
2021/06/17 08:43:08;;;;;;;5.55;3.63;;;;;;;29.40;44.50;99863.78;4995782;28;20496;-65
2021/06/17 08:45:37;;;;;;;7.82;3.78;;;;;;;29.39;43.39;99870.03;4995650;28;20105;-65
2021/06/17 08:48:07;;;;;;;;;;;;;;;29.37;42.29;99879.81;4996124;28;20052;-66
2021/06/17 08:50:37;;;;;;;6.20;3.20;;;;;;;29.27;42.40;99868.31;4995452;28;19922;-65
2021/06/17 08:53:08;;;;;;;5.60;3.25;;;;;;;29.17;42.30;99866.34;4995489;28;20118;-65
2021/06/17 08:55:41;;;;;;;6.57;3.65;;;;;;;29.06;42.99;99855.75;4995636;28;20061;-65
2021/06/17 08:58:11;;;;;;;6.00;3.50;;;;;;;29.07;42.72;99867.97;4978240;28;20050;-65
2021/06/17 09:00:46;;;;;;;4.78;3.38;;;;;;;29.19;42.91;99866.25;4995523;28;20058;-65
2021/06/17 09:03:17;;;;;;;4.75;3.17;;;;;;;29.44;43.22;99870.53;4996037;28;20101;-65
2021/06/17 09:05:52;;;;;;;6.82;3.95;;;;;;;29.40;42.86;99869.06;4995120;28;20069;-66
2021/06/17 09:08:29;;;;;;;4.43;3.38;;;;;;;29.42;43.20;99861.91;4995431;28;20053;-65
2021/06/17 09:11:04;;;;;;;5.05;3.42;;;;;;;29.58;42.89;99867.69;4995741;28;20056;-64
2021/06/17 09:13:35;;;;;;;5.38;3.38;;;;;;;29.87;42.45;99868.97;4994868;28;20054;-65
2021/06/17 09:16:08;;;;;;;5.97;3.38;;;;;;;29.91;42.24;99870.38;4995424;28;20046;-65
2021/06/17 09:18:43;;;;;;;5.60;3.40;;;;;;;30.14;41.72;99860.72;4992135;28;20038;-65
2021/06/17 09:21:12;;;;;;;4.82;3.35;;;;;;;30.40;41.79;99857.69;4994938;28;20058;-65
2021/06/17 09:23:48;;;;;;;4.72;3.53;;;;;;;30.62;41.32;99866.53;4994892;28;20061;-65
2021/06/17 09:26:23;;;;;;;4.43;3.00;;;;;;;30.73;41.31;99863.88;4994769;28;20054;-66
2021/06/17 09:28:59;;;;;;;4.93;3.47;;;;;;;30.81;41.36;99866.72;4994907;28;20054;-66
2021/06/17 09:31:29;;;;;;;4.53;3.53;;;;;;;30.39;41.06;99845.50;4975135;28;20535;-66
2021/06/17 09:34:01;;;;;;;7.00;3.70;;;;;;;30.36;41.39;99872.09;4994016;28;20053;-65
2021/06/17 09:36:32;;;;;;;6.28;3.90;;;;;;;30.14;41.97;99872.06;4994386;28;20054;-65
2021/06/17 09:39:09;;;;;;;5.32;3.47;;;;;;;30.03;41.36;99866.81;4994680;28;20058;-64
2021/06/17 09:41:41;;;;;;;4.72;3.08;;;;;;;30.30;41.35;99869.91;4994688;28;20055;-65
2021/06/17 09:44:29;;;;;;;4.88;3.35;;;;;;;30.30;40.94;99869.91;4977398;28;20057;-65
2021/06/17 09:47:07;;;;;;;6.32;3.60;;;;;;;30.52;40.73;99867.25;4994481;28;20121;-64
2021/06/17 09:49:37;;;;;;;5.53;3.17;;;;;;;30.52;39.65;99867.25;4994501;28;20054;-64
2021/06/17 09:52:08;;;;;;;6.55;3.30;;;;;;;30.68;39.97;99860.75;4994519;28;20051;-65
2021/06/17 09:54:42;;;;;;;5.20;3.38;;;;;;;30.83;40.35;99857.75;4994158;28;20054;-65
2021/06/17 09:57:15;;;;;;;5.13;3.47;;;;;;;30.88;39.60;99854.72;4994561;28;20054;-64
2021/06/17 09:59:47;;;;;;;5.20;3.55;;;;;;;30.73;39.56;99858.59;4994127;28;20104;-64
2021/06/17 10:02:21;;;;;;;5.18;3.50;;;;;;;30.80;40.14;99855.34;4994335;28;20062;-64
2021/06/17 10:05:08;;;;;;;5.93;3.60;;;;;;;30.72;40.15;99846.38;4993946;28;20070;-65
2021/06/17 10:07:41;;;;;;;5.97;3.85;;;;;;;30.40;40.32;99847.16;4994326;28;20082;-64
2021/06/17 10:10:15;;;;;;;5.63;3.25;;;;;;;30.78;40.91;99851.16;4994308;28;20519;-64
2021/06/17 10:12:45;;;;;;;5.15;3.38;;;;;;;31.15;39.69;99844.56;4994267;28;20487;-64
2021/06/17 10:15:15;;;;;;;5.55;3.28;;;;;;;31.18;38.51;99841.66;4994024;28;20049;-63
2021/06/17 10:17:45;;;;;;;5.70;3.35;;;;;;;31.26;38.04;99836.59;4994069;28;20518;-63
2021/06/17 10:20:16;;;;;;;4.93;3.13;;;;;;;31.26;37.80;99847.16;4994095;28;20060;-65
2021/06/17 10:22:46;;;;;;;4.68;3.38;;;;;;;31.23;39.02;99847.41;4994043;28;20583;-65
2021/06/17 10:25:25;;;;;;;5.03;3.22;;;;;;;30.78;39.08;99849.38;4994076;28;20050;-65
2021/06/17 10:27:57;;;;;;;5.55;3.55;;;;;;;30.84;39.52;99835.66;4993789;28;20556;-65
2021/06/17 10:30:43;;;;;;;4.63;3.40;;;;;;;30.98;39.66;99843.31;4993991;28;20054;-66
2021/06/17 10:33:27;;;;;;;6.15;3.30;;;;;;;30.93;39.75;99834.13;4994136;28;20058;-66
2021/06/17 10:36:23;;;;;;;5.47;3.45;;;;;;;30.86;39.64;99832.88;4993663;28;20150;-65
2021/06/17 10:39:17;;;;;;;6.82;3.80;;;;;;;31.08;39.57;99841.59;4994110;28;20500;-66
2021/06/17 10:42:13;;;;;;;5.55;3.42;;;;;;;31.49;39.43;99832.03;4994411;28;20050;-65
2021/06/17 10:44:54;;;;;;;5.55;3.30;;;;;;;31.49;39.80;99827.59;4996985;28;20440;-67
2021/06/17 10:47:49;;;;;;;4.55;3.35;;;;;;;31.61;40.00;99831.84;4997979;28;20061;-65
2021/06/17 10:50:24;;;;;;;5.13;3.55;;;;;;;31.70;39.11;99825.78;4997946;28;20137;-65
2021/06/17 10:53:19;;;;;;;5.05;3.30;;;;;;;31.56;38.97;99833.19;4997826;28;20563;-65
2021/06/17 10:56:00;;;;;;;6.07;3.65;;;;;;;31.45;38.33;99826.19;4997750;28;20396;-65
2021/06/17 10:59:03;;;;;;;4.38;3.30;;;;;;;31.43;37.67;99817.59;4998227;28;20050;-65
2021/06/17 11:01:46;;;;;;;9.35;3.58;;;;;;;31.44;37.43;99819.22;4997637;28;20046;-65
2021/06/17 11:04:21;;;;;;;6.55;3.42;;;;;;;31.54;37.34;99808.72;4997656;28;20054;-65
2021/06/17 11:07:14;;;;;;;5.43;3.20;;;;;;;31.41;37.75;99798.34;4997710;28;20090;-65
2021/06/17 11:10:11;;;;;;;5.75;3.25;;;;;;;31.68;38.54;99798.66;4997608;28;20042;-65
2021/06/17 11:12:58;;;;;;;5.00;3.13;;;;;;;31.72;37.79;99797.44;4937844;29;20082;-65
2021/06/17 11:15:38;;;;;;;4.75;3.17;;;;;;;31.52;37.48;99795.69;4937351;29;20051;-66
2021/06/17 11:18:09;;;;;;;4.47;3.00;;;;;;;31.51;37.71;99796.63;4937217;29;20044;-65
2021/06/17 11:20:44;;;;;;;4.40;3.20;;;;;;;31.34;36.81;99799.84;4937174;29;20078;-65
2021/06/17 11:23:21;;;;;;;5.20;3.13;;;;;;;31.36;36.55;99795.25;4937423;29;20055;-65
2021/06/17 11:25:57;;;;;;;4.68;3.22;;;;;;;31.51;36.26;99788.72;4936739;29;20060;-66
2021/06/17 11:28:50;;;;;;;5.60;3.17;;;;;;;31.38;37.08;99781.94;4937422;29;20087;-64
2021/06/17 11:31:36;;;;;;;4.72;3.53;;;;;;;31.45;36.91;99778.69;4937249;29;20072;-66
2021/06/17 11:34:07;;;;;;;4.70;3.22;;;;;;;31.44;36.83;99779.66;4937869;29;20457;-66
2021/06/17 11:36:49;;;;;;;6.90;3.88;;;;;;;31.51;37.34;99778.16;4945151;28;20053;-66
2021/06/17 11:39:22;;;;;;;5.28;3.30;;;;;;;31.49;37.15;99780.09;4977683;28;20559;-66
2021/06/17 11:42:04;;;;;;;5.30;3.28;;;;;;;31.61;36.64;99783.47;4977635;28;20134;-65
2021/06/17 11:44:34;;;;;;;4.65;3.25;;;;;;;31.85;36.46;99778.72;4977557;28;20141;-66
2021/06/17 11:47:05;;;;;;;4.65;2.90;;;;;;;31.90;36.54;99773.03;4977525;28;20063;-67
2021/06/17 11:49:38;;;;;;;4.65;3.20;;;;;;;32.08;36.62;99768.84;4977449;28;20098;-66
2021/06/17 11:52:13;;;;;;;5.20;3.40;;;;;;;32.30;36.61;99777.34;4977414;28;20505;-67
2021/06/17 11:54:50;;;;;;;5.25;3.72;;;;;;;32.29;35.93;99774.84;4976982;28;20409;-65
2021/06/17 11:57:27;;;;;;;4.95;3.50;;;;;;;32.22;36.38;99776.38;4977349;28;20058;-65
2021/06/17 11:59:56;;;;;;;6.22;3.47;;;;;;;32.10;35.64;99766.88;4977344;28;20047;-66
2021/06/17 12:02:26;;;;;;;;;;;;;;;32.48;36.60;99753.72;4977414;28;20404;-67
2021/06/17 12:05:02;;;;;;;5.93;3.30;;;;;;;32.55;37.80;99754.88;4977144;28;19928;-68
2021/06/17 12:07:33;;;;;;;5.78;3.55;;;;;;;32.78;38.32;99756.25;4977221;28;20553;-66
2021/06/17 12:10:09;;;;;;;4.38;3.03;;;;;;;33.02;37.12;99759.34;4976862;28;20051;-69